ENTO/TRF METAR and TAF weather

Enter ICAO airport designator
Station Type Date Time Source
ENTO METAR 2020/07/15 02:20 UTC NOAA

ENTO 150220Z AUTO 15004KT 9999 SCT011/// BKN015/// OVC034/// 14/12 Q1009


Station Type Date Time Source
ENTO Decoded METAR 2020/07/15 02:20 UTC NOAA

Torp, Norway (ENTO) 59-12N 010-16E 88M
Jul 14, 2020 - 10:20 PM EDT / 2020.07.15 0220 UTC
Wind: from the SSE (150 degrees) at 5 MPH (4 KT):0
Visibility: greater than 7 mile(s):0
Sky conditions: overcast
Temperature: 57 F (14 C)
Dew Point: 53 F (12 C)
Relative Humidity: 87%
Pressure (altimeter): 29.80 in. Hg (1009 hPa)
ob: ENTO 150220Z AUTO 15004KT 9999 SCT011/// BKN015/// OVC034/// 14/12 Q1009
cycle: 2

Station Type Date Time Source
ENTO TAF 2020/07/14 18:57 UTC NOAA

TAF ENTO 141700Z 1418/1518 18008KT 9999 FEW008 BKN020
TEMPO 1418/1514 4000 SHRA BR BKN008 SCT020CB

Example: see airport list